Decoded Metar for LFRL (LANVEDOC in FRANCE) (IATA:N/A) | Meteo·Mobile Aviation Weather
aviador You're here:

LFRL Decoded Metar

LANVEDOC in FRANCE
Report Time2019-09-21 08:30:00
UTC Time2019-09-21 08:49:10
Flight Rules mvfr MVFR
Wind160° at 12 kt
W.Decomp.*RWY 23: 4.7 kt HW 11 kt LCW
Visibility9999 m
Phenomena:N/A
Clouds:Overcast 013 Hf
Expected CloudBase > 1,200 ft AGL from Temp-Dew spread
Ceiling1,300 ft
Temp20°C (ISA +6)
Dew Point17°C (83% RH)
AAT18.1°C
QNH1006 hPa
Density Alt1,411 ft
Elevation269 ft
Report Wrong Elevation
Raw Report
METAR LFRL 210830Z AUTO 16012KT 9999 OVC013 20/17 Q1006=

Extra information for LFRL:More info

Metar Taf Metar & Taf Last 4 Metars F.Rules Stats Wind Profile Meteogram Temp Stats Airport Information Weather charts Add Link Nearby VenuesMetar ALERT Operation Metar Decoded Social comments